sensor_id;sensor_type;location;lat;lon;timestamp;P1;durP1;ratioP1;P2;durP2;ratioP2
41709;SDS011;59402;48.396;-4.472;2022-07-17T00:01:55;6.60;;;2.22;;
41709;SDS011;59402;48.396;-4.472;2022-07-17T00:04:20;6.35;;;2.35;;
41709;SDS011;59402;48.396;-4.472;2022-07-17T00:06:46;10.57;;;2.75;;
41709;SDS011;59402;48.396;-4.472;2022-07-17T00:09:11;6.22;;;2.47;;
41709;SDS011;59402;48.396;-4.472;2022-07-17T00:11:37;7.68;;;2.40;;
41709;SDS011;59402;48.396;-4.472;2022-07-17T00:14:02;5.88;;;2.40;;
41709;SDS011;59402;48.396;-4.472;2022-07-17T00:16:28;5.88;;;2.30;;
41709;SDS011;59402;48.396;-4.472;2022-07-17T00:18:53;8.45;;;2.53;;
41709;SDS011;59402;48.396;-4.472;2022-07-17T00:21:19;5.95;;;2.42;;
41709;SDS011;59402;48.396;-4.472;2022-07-17T00:23:44;5.68;;;2.13;;
41709;SDS011;59402;48.396;-4.472;2022-07-17T00:26:11;10.38;;;2.50;;
41709;SDS011;59402;48.396;-4.472;2022-07-17T00:28:36;5.50;;;2.20;;
41709;SDS011;59402;48.396;-4.472;2022-07-17T00:31:02;4.75;;;2.40;;
41709;SDS011;59402;48.396;-4.472;2022-07-17T00:33:27;4.28;;;2.08;;
41709;SDS011;59402;48.396;-4.472;2022-07-17T00:35:53;5.85;;;2.35;;
41709;SDS011;59402;48.396;-4.472;2022-07-17T00:38:18;4.05;;;2.13;;
41709;SDS011;59402;48.396;-4.472;2022-07-17T00:40:43;4.18;;;1.98;;
41709;SDS011;59402;48.396;-4.472;2022-07-17T00:43:10;9.07;;;2.15;;
41709;SDS011;59402;48.396;-4.472;2022-07-17T00:45:35;7.32;;;2.35;;
41709;SDS011;59402;48.396;-4.472;2022-07-17T00:48:02;6.10;;;2.63;;
41709;SDS011;59402;48.396;-4.472;2022-07-17T00:50:31;9.30;;;2.60;;
41709;SDS011;59402;48.396;-4.472;2022-07-17T00:52:58;7.18;;;2.53;;
41709;SDS011;59402;48.396;-4.472;2022-07-17T00:55:24;5.53;;;2.58;;
41709;SDS011;59402;48.396;-4.472;2022-07-17T00:57:50;6.35;;;2.53;;
41709;SDS011;59402;48.396;-4.472;2022-07-17T01:00:19;7.32;;;2.60;;
41709;SDS011;59402;48.396;-4.472;2022-07-17T01:02:46;9.55;;;2.80;;
41709;SDS011;59402;48.396;-4.472;2022-07-17T01:05:15;6.38;;;2.40;;
41709;SDS011;59402;48.396;-4.472;2022-07-17T01:07:42;5.43;;;2.40;;
41709;SDS011;59402;48.396;-4.472;2022-07-17T01:10:07;6.35;;;2.13;;
41709;SDS011;59402;48.396;-4.472;2022-07-17T01:12:33;8.82;;;2.55;;
41709;SDS011;59402;48.396;-4.472;2022-07-17T01:14:59;6.50;;;2.30;;
41709;SDS011;59402;48.396;-4.472;2022-07-17T01:17:26;8.35;;;2.20;;
41709;SDS011;59402;48.396;-4.472;2022-07-17T01:19:51;9.55;;;2.22;;
41709;SDS011;59402;48.396;-4.472;2022-07-17T01:22:17;6.00;;;1.73;;
41709;SDS011;59402;48.396;-4.472;2022-07-17T01:24:43;6.53;;;2.58;;
41709;SDS011;59402;48.396;-4.472;2022-07-17T01:27:09;9.57;;;2.10;;
41709;SDS011;59402;48.396;-4.472;2022-07-17T01:29:37;6.32;;;2.22;;
41709;SDS011;59402;48.396;-4.472;2022-07-17T01:32:04;7.13;;;2.40;;
41709;SDS011;59402;48.396;-4.472;2022-07-17T01:34:30;4.72;;;2.03;;
41709;SDS011;59402;48.396;-4.472;2022-07-17T01:36:55;7.30;;;1.92;;
41709;SDS011;59402;48.396;-4.472;2022-07-17T01:39:21;7.57;;;2.63;;
41709;SDS011;59402;48.396;-4.472;2022-07-17T01:42:06;8.40;;;2.38;;
41709;SDS011;59402;48.396;-4.472;2022-07-17T01:44:32;7.45;;;2.28;;
41709;SDS011;59402;48.396;-4.472;2022-07-17T01:46:57;7.47;;;2.40;;
41709;SDS011;59402;48.396;-4.472;2022-07-17T01:49:23;6.20;;;2.30;;
41709;SDS011;59402;48.396;-4.472;2022-07-17T01:51:48;4.82;;;2.08;;
41709;SDS011;59402;48.396;-4.472;2022-07-17T01:54:14;7.07;;;1.90;;
41709;SDS011;59402;48.396;-4.472;2022-07-17T01:56:40;6.32;;;2.25;;
41709;SDS011;59402;48.396;-4.472;2022-07-17T01:59:05;5.45;;;1.80;;
41709;SDS011;59402;48.396;-4.472;2022-07-17T02:01:31;10.25;;;2.42;;
41709;SDS011;59402;48.396;-4.472;2022-07-17T02:03:56;5.57;;;2.15;;
41709;SDS011;59402;48.396;-4.472;2022-07-17T02:06:22;4.65;;;2.10;;
41709;SDS011;59402;48.396;-4.472;2022-07-17T02:08:47;5.93;;;2.03;;
41709;SDS011;59402;48.396;-4.472;2022-07-17T02:11:16;4.70;;;1.90;;
41709;SDS011;59402;48.396;-4.472;2022-07-17T02:13:42;8.80;;;2.38;;
41709;SDS011;59402;48.396;-4.472;2022-07-17T02:16:08;5.13;;;2.03;;
41709;SDS011;59402;48.396;-4.472;2022-07-17T02:18:33;3.58;;;2.10;;
41709;SDS011;59402;48.396;-4.472;2022-07-17T02:20:59;5.00;;;2.05;;
41709;SDS011;59402;48.396;-4.472;2022-07-17T02:23:24;6.40;;;2.47;;
41709;SDS011;59402;48.396;-4.472;2022-07-17T02:25:50;4.50;;;1.88;;
41709;SDS011;59402;48.396;-4.472;2022-07-17T02:28:15;6.05;;;2.00;;
41709;SDS011;59402;48.396;-4.472;2022-07-17T02:30:41;3.85;;;2.28;;
41709;SDS011;59402;48.396;-4.472;2022-07-17T02:33:06;5.70;;;2.15;;
41709;SDS011;59402;48.396;-4.472;2022-07-17T02:35:32;6.68;;;2.30;;
41709;SDS011;59402;48.396;-4.472;2022-07-17T02:37:58;5.65;;;2.20;;
41709;SDS011;59402;48.396;-4.472;2022-07-17T02:40:24;4.13;;;2.10;;
41709;SDS011;59402;48.396;-4.472;2022-07-17T02:42:49;6.78;;;2.20;;
41709;SDS011;59402;48.396;-4.472;2022-07-17T02:45:15;5.32;;;1.80;;
41709;SDS011;59402;48.396;-4.472;2022-07-17T02:47:40;7.50;;;1.88;;
41709;SDS011;59402;48.396;-4.472;2022-07-17T02:50:07;5.97;;;2.25;;
41709;SDS011;59402;48.396;-4.472;2022-07-17T02:52:33;7.18;;;2.10;;
41709;SDS011;59402;48.396;-4.472;2022-07-17T02:54:59;5.88;;;2.28;;
41709;SDS011;59402;48.396;-4.472;2022-07-17T02:57:25;4.55;;;2.05;;
41709;SDS011;59402;48.396;-4.472;2022-07-17T02:59:50;4.80;;;2.05;;
41709;SDS011;59402;48.396;-4.472;2022-07-17T03:02:15;4.38;;;2.00;;
41709;SDS011;59402;48.396;-4.472;2022-07-17T03:04:41;5.45;;;2.03;;
41709;SDS011;59402;48.396;-4.472;2022-07-17T03:07:06;7.13;;;2.00;;
41709;SDS011;59402;48.396;-4.472;2022-07-17T03:09:32;6.55;;;2.17;;
41709;SDS011;59402;48.396;-4.472;2022-07-17T03:11:57;5.15;;;2.00;;
41709;SDS011;59402;48.396;-4.472;2022-07-17T03:14:24;6.13;;;2.10;;
41709;SDS011;59402;48.396;-4.472;2022-07-17T03:16:49;7.50;;;2.22;;
41709;SDS011;59402;48.396;-4.472;2022-07-17T03:19:15;5.15;;;1.90;;
41709;SDS011;59402;48.396;-4.472;2022-07-17T03:21:40;10.32;;;2.25;;
41709;SDS011;59402;48.396;-4.472;2022-07-17T03:24:05;4.43;;;2.15;;
41709;SDS011;59402;48.396;-4.472;2022-07-17T03:26:31;5.68;;;2.00;;
41709;SDS011;59402;48.396;-4.472;2022-07-17T03:28:56;6.32;;;2.10;;
41709;SDS011;59402;48.396;-4.472;2022-07-17T03:31:22;7.20;;;2.95;;
41709;SDS011;59402;48.396;-4.472;2022-07-17T03:33:47;8.88;;;2.85;;
41709;SDS011;59402;48.396;-4.472;2022-07-17T03:36:13;6.20;;;2.22;;
41709;SDS011;59402;48.396;-4.472;2022-07-17T03:38:38;6.30;;;1.98;;
41709;SDS011;59402;48.396;-4.472;2022-07-17T03:41:04;7.10;;;2.08;;
41709;SDS011;59402;48.396;-4.472;2022-07-17T03:43:29;9.13;;;2.15;;
41709;SDS011;59402;48.396;-4.472;2022-07-17T03:45:54;6.30;;;2.13;;
41709;SDS011;59402;48.396;-4.472;2022-07-17T03:48:20;6.53;;;2.03;;
41709;SDS011;59402;48.396;-4.472;2022-07-17T03:50:45;8.77;;;2.20;;
41709;SDS011;59402;48.396;-4.472;2022-07-17T03:53:11;7.03;;;2.30;;
41709;SDS011;59402;48.396;-4.472;2022-07-17T03:55:36;8.45;;;1.95;;
41709;SDS011;59402;48.396;-4.472;2022-07-17T03:58:02;7.13;;;1.67;;
41709;SDS011;59402;48.396;-4.472;2022-07-17T04:00:27;7.35;;;2.20;;
41709;SDS011;59402;48.396;-4.472;2022-07-17T04:02:53;8.07;;;2.33;;
41709;SDS011;59402;48.396;-4.472;2022-07-17T04:05:18;6.07;;;1.80;;
41709;SDS011;59402;48.396;-4.472;2022-07-17T04:07:44;6.05;;;1.75;;
41709;SDS011;59402;48.396;-4.472;2022-07-17T04:10:10;6.10;;;2.13;;
41709;SDS011;59402;48.396;-4.472;2022-07-17T04:12:38;9.10;;;2.30;;
41709;SDS011;59402;48.396;-4.472;2022-07-17T04:15:04;4.68;;;2.00;;
41709;SDS011;59402;48.396;-4.472;2022-07-17T04:19:56;6.18;;;1.98;;
41709;SDS011;59402;48.396;-4.472;2022-07-17T04:22:22;8.70;;;2.25;;
41709;SDS011;59402;48.396;-4.472;2022-07-17T04:24:48;6.22;;;2.38;;
41709;SDS011;59402;48.396;-4.472;2022-07-17T04:27:14;9.57;;;2.20;;
41709;SDS011;59402;48.396;-4.472;2022-07-17T04:29:39;6.05;;;2.13;;
41709;SDS011;59402;48.396;-4.472;2022-07-17T04:32:05;5.63;;;2.15;;
41709;SDS011;59402;48.396;-4.472;2022-07-17T04:34:31;4.78;;;2.00;;
41709;SDS011;59402;48.396;-4.472;2022-07-17T04:36:58;8.45;;;1.90;;
41709;SDS011;59402;48.396;-4.472;2022-07-17T04:39:24;5.13;;;1.92;;
41709;SDS011;59402;48.396;-4.472;2022-07-17T04:41:50;5.65;;;2.28;;
41709;SDS011;59402;48.396;-4.472;2022-07-17T04:44:16;10.80;;;2.17;;
41709;SDS011;59402;48.396;-4.472;2022-07-17T04:46:42;7.25;;;2.33;;
41709;SDS011;59402;48.396;-4.472;2022-07-17T04:49:08;5.38;;;2.10;;
41709;SDS011;59402;48.396;-4.472;2022-07-17T04:51:34;8.07;;;2.20;;
41709;SDS011;59402;48.396;-4.472;2022-07-17T04:53:59;5.68;;;2.00;;
41709;SDS011;59402;48.396;-4.472;2022-07-17T04:56:25;4.60;;;2.00;;
41709;SDS011;59402;48.396;-4.472;2022-07-17T04:58:50;9.30;;;2.10;;
41709;SDS011;59402;48.396;-4.472;2022-07-17T05:01:16;4.70;;;2.22;;
41709;SDS011;59402;48.396;-4.472;2022-07-17T05:03:41;6.40;;;1.98;;
41709;SDS011;59402;48.396;-4.472;2022-07-17T05:06:07;8.00;;;2.03;;
41709;SDS011;59402;48.396;-4.472;2022-07-17T05:08:33;4.18;;;2.15;;
41709;SDS011;59402;48.396;-4.472;2022-07-17T05:13:25;6.15;;;2.33;;
41709;SDS011;59402;48.396;-4.472;2022-07-17T05:15:50;4.93;;;2.17;;
41709;SDS011;59402;48.396;-4.472;2022-07-17T05:18:16;7.18;;;1.98;;
41709;SDS011;59402;48.396;-4.472;2022-07-17T05:20:41;5.88;;;2.13;;
41709;SDS011;59402;48.396;-4.472;2022-07-17T05:23:07;8.68;;;2.28;;
41709;SDS011;59402;48.396;-4.472;2022-07-17T05:25:32;9.20;;;2.28;;
41709;SDS011;59402;48.396;-4.472;2022-07-17T05:27:58;7.15;;;1.70;;
41709;SDS011;59402;48.396;-4.472;2022-07-17T05:30:23;4.43;;;1.75;;
41709;SDS011;59402;48.396;-4.472;2022-07-17T05:32:49;4.20;;;1.85;;
41709;SDS011;59402;48.396;-4.472;2022-07-17T05:35:14;3.72;;;1.85;;
41709;SDS011;59402;48.396;-4.472;2022-07-17T05:37:40;6.75;;;2.33;;
41709;SDS011;59402;48.396;-4.472;2022-07-17T05:40:05;4.55;;;2.00;;
41709;SDS011;59402;48.396;-4.472;2022-07-17T05:42:31;7.50;;;2.08;;
41709;SDS011;59402;48.396;-4.472;2022-07-17T05:44:57;5.70;;;1.95;;
41709;SDS011;59402;48.396;-4.472;2022-07-17T05:47:24;7.47;;;2.17;;
41709;SDS011;59402;48.396;-4.472;2022-07-17T05:49:49;6.18;;;2.10;;
41709;SDS011;59402;48.396;-4.472;2022-07-17T05:52:15;5.32;;;1.90;;
41709;SDS011;59402;48.396;-4.472;2022-07-17T05:54:40;8.63;;;2.10;;
41709;SDS011;59402;48.396;-4.472;2022-07-17T05:57:06;7.20;;;1.77;;
41709;SDS011;59402;48.396;-4.472;2022-07-17T05:59:31;6.20;;;1.85;;
41709;SDS011;59402;48.396;-4.472;2022-07-17T06:01:56;4.63;;;1.73;;
41709;SDS011;59402;48.396;-4.472;2022-07-17T06:04:22;5.60;;;1.92;;
41709;SDS011;59402;48.396;-4.472;2022-07-17T06:06:47;5.45;;;1.85;;
41709;SDS011;59402;48.396;-4.472;2022-07-17T06:09:13;9.35;;;2.17;;
41709;SDS011;59402;48.396;-4.472;2022-07-17T06:11:39;6.13;;;2.22;;
41709;SDS011;59402;48.396;-4.472;2022-07-17T06:14:04;9.80;;;2.10;;
41709;SDS011;59402;48.396;-4.472;2022-07-17T06:16:29;4.95;;;2.38;;
41709;SDS011;59402;48.396;-4.472;2022-07-17T06:18:55;4.03;;;1.83;;
41709;SDS011;59402;48.396;-4.472;2022-07-17T06:21:20;5.15;;;1.98;;
41709;SDS011;59402;48.396;-4.472;2022-07-17T06:23:46;6.18;;;2.10;;
41709;SDS011;59402;48.396;-4.472;2022-07-17T06:26:11;3.72;;;1.92;;
41709;SDS011;59402;48.396;-4.472;2022-07-17T06:28:37;4.07;;;1.77;;
41709;SDS011;59402;48.396;-4.472;2022-07-17T06:31:02;4.90;;;2.17;;
41709;SDS011;59402;48.396;-4.472;2022-07-17T06:33:27;8.57;;;2.10;;
41709;SDS011;59402;48.396;-4.472;2022-07-17T06:35:53;6.47;;;2.10;;
41709;SDS011;59402;48.396;-4.472;2022-07-17T06:38:18;21.42;;;2.40;;
41709;SDS011;59402;48.396;-4.472;2022-07-17T06:40:44;4.30;;;1.92;;
41709;SDS011;59402;48.396;-4.472;2022-07-17T06:43:09;5.72;;;2.05;;
41709;SDS011;59402;48.396;-4.472;2022-07-17T06:45:35;5.28;;;2.05;;
41709;SDS011;59402;48.396;-4.472;2022-07-17T06:48:01;4.75;;;1.90;;
41709;SDS011;59402;48.396;-4.472;2022-07-17T06:50:26;4.82;;;2.00;;
41709;SDS011;59402;48.396;-4.472;2022-07-17T06:52:52;10.35;;;1.98;;
41709;SDS011;59402;48.396;-4.472;2022-07-17T06:55:17;5.07;;;1.77;;
41709;SDS011;59402;48.396;-4.472;2022-07-17T06:57:43;5.18;;;1.73;;
41709;SDS011;59402;48.396;-4.472;2022-07-17T07:00:08;7.75;;;2.08;;
41709;SDS011;59402;48.396;-4.472;2022-07-17T07:02:34;4.45;;;1.85;;
41709;SDS011;59402;48.396;-4.472;2022-07-17T07:05:00;8.50;;;2.13;;
41709;SDS011;59402;48.396;-4.472;2022-07-17T07:07:26;3.67;;;1.40;;
41709;SDS011;59402;48.396;-4.472;2022-07-17T07:09:51;3.58;;;1.63;;
41709;SDS011;59402;48.396;-4.472;2022-07-17T07:12:17;7.15;;;1.52;;
41709;SDS011;59402;48.396;-4.472;2022-07-17T07:14:42;5.38;;;1.85;;
41709;SDS011;59402;48.396;-4.472;2022-07-17T07:17:07;4.50;;;1.90;;
41709;SDS011;59402;48.396;-4.472;2022-07-17T07:19:33;5.80;;;1.80;;
41709;SDS011;59402;48.396;-4.472;2022-07-17T07:21:58;4.47;;;1.95;;
41709;SDS011;59402;48.396;-4.472;2022-07-17T07:24:24;5.28;;;2.00;;
41709;SDS011;59402;48.396;-4.472;2022-07-17T07:26:49;5.30;;;2.10;;
41709;SDS011;59402;48.396;-4.472;2022-07-17T07:29:15;5.15;;;1.80;;
41709;SDS011;59402;48.396;-4.472;2022-07-17T07:31:41;5.55;;;1.92;;
41709;SDS011;59402;48.396;-4.472;2022-07-17T07:34:06;3.83;;;1.95;;
41709;SDS011;59402;48.396;-4.472;2022-07-17T07:36:32;4.72;;;1.70;;
41709;SDS011;59402;48.396;-4.472;2022-07-17T07:38:58;4.20;;;1.92;;
41709;SDS011;59402;48.396;-4.472;2022-07-17T07:41:23;5.38;;;1.90;;
41709;SDS011;59402;48.396;-4.472;2022-07-17T07:43:49;6.93;;;1.70;;
41709;SDS011;59402;48.396;-4.472;2022-07-17T07:46:14;4.75;;;1.88;;
41709;SDS011;59402;48.396;-4.472;2022-07-17T07:48:40;8.70;;;1.50;;
41709;SDS011;59402;48.396;-4.472;2022-07-17T07:51:05;6.60;;;2.17;;
41709;SDS011;59402;48.396;-4.472;2022-07-17T07:53:31;6.57;;;1.92;;
41709;SDS011;59402;48.396;-4.472;2022-07-17T07:55:56;6.40;;;1.90;;
41709;SDS011;59402;48.396;-4.472;2022-07-17T07:58:22;5.43;;;1.55;;
41709;SDS011;59402;48.396;-4.472;2022-07-17T08:00:47;7.75;;;1.85;;
41709;SDS011;59402;48.396;-4.472;2022-07-17T08:03:13;6.30;;;2.03;;
41709;SDS011;59402;48.396;-4.472;2022-07-17T08:05:39;5.45;;;1.80;;
41709;SDS011;59402;48.396;-4.472;2022-07-17T08:08:05;6.70;;;1.98;;
41709;SDS011;59402;48.396;-4.472;2022-07-17T08:10:31;4.95;;;1.90;;
41709;SDS011;59402;48.396;-4.472;2022-07-17T08:12:56;7.53;;;1.55;;
41709;SDS011;59402;48.396;-4.472;2022-07-17T08:15:22;7.47;;;1.92;;
41709;SDS011;59402;48.396;-4.472;2022-07-17T08:17:49;5.63;;;1.98;;
41709;SDS011;59402;48.396;-4.472;2022-07-17T08:20:16;4.65;;;1.65;;
41709;SDS011;59402;48.396;-4.472;2022-07-17T08:22:42;6.00;;;2.30;;
41709;SDS011;59402;48.396;-4.472;2022-07-17T08:25:08;8.40;;;2.08;;
41709;SDS011;59402;48.396;-4.472;2022-07-17T08:27:38;4.70;;;1.98;;
41709;SDS011;59402;48.396;-4.472;2022-07-17T08:30:06;7.93;;;2.30;;
41709;SDS011;59402;48.396;-4.472;2022-07-17T08:32:33;4.05;;;1.85;;
41709;SDS011;59402;48.396;-4.472;2022-07-17T08:34:59;6.78;;;1.85;;
41709;SDS011;59402;48.396;-4.472;2022-07-17T08:37:24;5.25;;;1.88;;
41709;SDS011;59402;48.396;-4.472;2022-07-17T08:39:50;5.75;;;2.03;;
41709;SDS011;59402;48.396;-4.472;2022-07-17T08:42:16;8.07;;;2.20;;
41709;SDS011;59402;48.396;-4.472;2022-07-17T08:44:42;6.63;;;2.10;;
41709;SDS011;59402;48.396;-4.472;2022-07-17T08:47:09;7.05;;;2.38;;
41709;SDS011;59402;48.396;-4.472;2022-07-17T08:49:37;5.95;;;2.05;;
41709;SDS011;59402;48.396;-4.472;2022-07-17T08:52:14;11.07;;;2.40;;
41709;SDS011;59402;48.396;-4.472;2022-07-17T08:54:40;7.40;;;2.08;;
41709;SDS011;59402;48.396;-4.472;2022-07-17T08:57:06;6.10;;;1.98;;
41709;SDS011;59402;48.396;-4.472;2022-07-17T08:59:34;6.75;;;2.00;;
41709;SDS011;59402;48.396;-4.472;2022-07-17T09:02:00;8.50;;;1.90;;
41709;SDS011;59402;48.396;-4.472;2022-07-17T09:04:26;8.55;;;1.90;;
41709;SDS011;59402;48.396;-4.472;2022-07-17T09:06:59;7.20;;;2.08;;
41709;SDS011;59402;48.396;-4.472;2022-07-17T09:09:29;4.65;;;1.85;;
41709;SDS011;59402;48.396;-4.472;2022-07-17T09:11:56;7.78;;;2.85;;
41709;SDS011;59402;48.396;-4.472;2022-07-17T09:14:39;5.70;;;1.90;;
41709;SDS011;59402;48.396;-4.472;2022-07-17T09:17:06;8.50;;;2.08;;
41709;SDS011;59402;48.396;-4.472;2022-07-17T09:19:34;4.78;;;1.65;;
41709;SDS011;59402;48.396;-4.472;2022-07-17T09:24:48;6.75;;;1.80;;
41709;SDS011;59402;48.396;-4.472;2022-07-17T09:27:36;5.05;;;1.67;;
41709;SDS011;59402;48.396;-4.472;2022-07-17T09:30:04;8.65;;;1.80;;
41709;SDS011;59402;48.396;-4.472;2022-07-17T09:32:33;5.03;;;1.80;;
41709;SDS011;59402;48.396;-4.472;2022-07-17T09:35:00;5.55;;;1.70;;
41709;SDS011;59402;48.396;-4.472;2022-07-17T09:37:28;5.03;;;1.60;;
41709;SDS011;59402;48.396;-4.472;2022-07-17T09:39:55;6.00;;;1.80;;
41709;SDS011;59402;48.396;-4.472;2022-07-17T09:42:23;7.30;;;1.83;;
41709;SDS011;59402;48.396;-4.472;2022-07-17T09:45:14;6.68;;;1.75;;
41709;SDS011;59402;48.396;-4.472;2022-07-17T09:47:39;2.88;;;1.52;;
41709;SDS011;59402;48.396;-4.472;2022-07-17T09:50:05;5.03;;;1.80;;
41709;SDS011;59402;48.396;-4.472;2022-07-17T09:52:34;5.88;;;1.63;;
41709;SDS011;59402;48.396;-4.472;2022-07-17T09:55:01;7.15;;;1.80;;
41709;SDS011;59402;48.396;-4.472;2022-07-17T09:57:28;7.78;;;1.67;;
41709;SDS011;59402;48.396;-4.472;2022-07-17T09:59:55;4.32;;;1.60;;
41709;SDS011;59402;48.396;-4.472;2022-07-17T10:02:24;6.63;;;2.05;;
41709;SDS011;59402;48.396;-4.472;2022-07-17T10:04:50;8.50;;;2.40;;
41709;SDS011;59402;48.396;-4.472;2022-07-17T10:07:17;5.78;;;2.15;;
41709;SDS011;59402;48.396;-4.472;2022-07-17T10:09:43;3.83;;;1.70;;
41709;SDS011;59402;48.396;-4.472;2022-07-17T10:12:09;7.00;;;2.10;;
41709;SDS011;59402;48.396;-4.472;2022-07-17T10:14:35;9.20;;;2.20;;
41709;SDS011;59402;48.396;-4.472;2022-07-17T10:17:10;6.40;;;1.80;;
41709;SDS011;59402;48.396;-4.472;2022-07-17T10:19:46;3.65;;;1.77;;
41709;SDS011;59402;48.396;-4.472;2022-07-17T10:22:14;8.15;;;2.10;;
41709;SDS011;59402;48.396;-4.472;2022-07-17T10:24:55;6.20;;;2.23;;
41709;SDS011;59402;48.396;-4.472;2022-07-17T10:27:28;6.30;;;2.30;;
41709;SDS011;59402;48.396;-4.472;2022-07-17T10:30:07;6.20;;;2.20;;
41709;SDS011;59402;48.396;-4.472;2022-07-17T10:32:35;6.65;;;1.90;;
41709;SDS011;59402;48.396;-4.472;2022-07-17T10:35:05;7.13;;;1.90;;
41709;SDS011;59402;48.396;-4.472;2022-07-17T10:37:38;5.53;;;1.90;;
41709;SDS011;59402;48.396;-4.472;2022-07-17T10:47:53;6.68;;;1.88;;
41709;SDS011;59402;48.396;-4.472;2022-07-17T10:50:21;4.88;;;1.75;;
41709;SDS011;59402;48.396;-4.472;2022-07-17T10:52:59;7.03;;;1.90;;
41709;SDS011;59402;48.396;-4.472;2022-07-17T10:55:27;6.95;;;1.98;;
41709;SDS011;59402;48.396;-4.472;2022-07-17T10:57:53;7.10;;;1.80;;
41709;SDS011;59402;48.396;-4.472;2022-07-17T11:00:19;5.25;;;1.67;;
41709;SDS011;59402;48.396;-4.472;2022-07-17T11:02:45;5.10;;;2.28;;
41709;SDS011;59402;48.396;-4.472;2022-07-17T11:05:11;6.68;;;2.15;;
41709;SDS011;59402;48.396;-4.472;2022-07-17T11:10:17;4.57;;;1.90;;
41709;SDS011;59402;48.396;-4.472;2022-07-17T11:12:43;4.38;;;1.73;;
41709;SDS011;59402;48.396;-4.472;2022-07-17T11:15:09;11.05;;;2.00;;
41709;SDS011;59402;48.396;-4.472;2022-07-17T11:17:34;3.78;;;1.70;;
41709;SDS011;59402;48.396;-4.472;2022-07-17T11:20:02;5.80;;;2.30;;
41709;SDS011;59402;48.396;-4.472;2022-07-17T11:22:28;7.53;;;2.30;;
41709;SDS011;59402;48.396;-4.472;2022-07-17T11:24:53;3.40;;;1.75;;
41709;SDS011;59402;48.396;-4.472;2022-07-17T11:27:23;5.70;;;1.65;;
41709;SDS011;59402;48.396;-4.472;2022-07-17T11:29:50;4.38;;;1.95;;
41709;SDS011;59402;48.396;-4.472;2022-07-17T11:32:17;5.05;;;2.13;;
41709;SDS011;59402;48.396;-4.472;2022-07-17T11:34:43;4.38;;;1.58;;
41709;SDS011;59402;48.396;-4.472;2022-07-17T11:37:09;6.80;;;1.98;;
41709;SDS011;59402;48.396;-4.472;2022-07-17T11:42:15;6.05;;;1.80;;
41709;SDS011;59402;48.396;-4.472;2022-07-17T11:44:42;4.15;;;1.88;;
41709;SDS011;59402;48.396;-4.472;2022-07-17T11:47:09;6.33;;;2.03;;
41709;SDS011;59402;48.396;-4.472;2022-07-17T11:49:36;4.55;;;1.60;;
41709;SDS011;59402;48.396;-4.472;2022-07-17T11:52:12;6.30;;;1.90;;
41709;SDS011;59402;48.396;-4.472;2022-07-17T11:54:49;5.25;;;1.80;;
41709;SDS011;59402;48.396;-4.472;2022-07-17T11:57:20;8.13;;;1.90;;
41709;SDS011;59402;48.396;-4.472;2022-07-17T11:59:46;3.08;;;1.35;;
41709;SDS011;59402;48.396;-4.472;2022-07-17T12:02:16;4.05;;;1.65;;
41709;SDS011;59402;48.396;-4.472;2022-07-17T12:07:19;5.22;;;1.83;;
41709;SDS011;59402;48.396;-4.472;2022-07-17T12:09:46;4.85;;;1.70;;
41709;SDS011;59402;48.396;-4.472;2022-07-17T12:12:22;4.80;;;1.53;;
41709;SDS011;59402;48.396;-4.472;2022-07-17T12:14:52;8.50;;;1.67;;
41709;SDS011;59402;48.396;-4.472;2022-07-17T12:17:18;5.03;;;1.83;;
41709;SDS011;59402;48.396;-4.472;2022-07-17T12:19:45;4.38;;;1.75;;
41709;SDS011;59402;48.396;-4.472;2022-07-17T12:22:10;5.07;;;1.40;;
41709;SDS011;59402;48.396;-4.472;2022-07-17T12:24:37;9.80;;;1.90;;
41709;SDS011;59402;48.396;-4.472;2022-07-17T12:27:04;7.93;;;1.75;;
41709;SDS011;59402;48.396;-4.472;2022-07-17T12:29:31;8.43;;;2.25;;
41709;SDS011;59402;48.396;-4.472;2022-07-17T12:32:07;3.77;;;1.70;;
41709;SDS011;59402;48.396;-4.472;2022-07-17T12:34:43;3.03;;;1.27;;
41709;SDS011;59402;48.396;-4.472;2022-07-17T12:37:10;4.60;;;1.58;;
41709;SDS011;59402;48.396;-4.472;2022-07-17T12:39:44;4.30;;;1.60;;
41709;SDS011;59402;48.396;-4.472;2022-07-17T12:42:10;4.82;;;1.40;;
41709;SDS011;59402;48.396;-4.472;2022-07-17T12:44:36;4.63;;;1.90;;
41709;SDS011;59402;48.396;-4.472;2022-07-17T12:47:03;5.57;;;1.70;;
41709;SDS011;59402;48.396;-4.472;2022-07-17T12:49:29;13.30;;;1.67;;
41709;SDS011;59402;48.396;-4.472;2022-07-17T12:51:54;3.58;;;1.67;;
41709;SDS011;59402;48.396;-4.472;2022-07-17T12:54:20;4.67;;;1.50;;
41709;SDS011;59402;48.396;-4.472;2022-07-17T12:56:46;4.72;;;1.33;;
41709;SDS011;59402;48.396;-4.472;2022-07-17T12:59:12;4.35;;;1.35;;
41709;SDS011;59402;48.396;-4.472;2022-07-17T13:01:38;4.63;;;1.40;;
41709;SDS011;59402;48.396;-4.472;2022-07-17T13:04:03;7.13;;;1.70;;
41709;SDS011;59402;48.396;-4.472;2022-07-17T13:06:29;6.30;;;1.65;;
41709;SDS011;59402;48.396;-4.472;2022-07-17T13:08:55;3.30;;;1.50;;
41709;SDS011;59402;48.396;-4.472;2022-07-17T13:11:20;4.80;;;1.67;;
41709;SDS011;59402;48.396;-4.472;2022-07-17T13:13:46;4.60;;;1.20;;
41709;SDS011;59402;48.396;-4.472;2022-07-17T13:16:12;6.25;;;1.52;;
41709;SDS011;59402;48.396;-4.472;2022-07-17T13:18:38;5.33;;;1.37;;
41709;SDS011;59402;48.396;-4.472;2022-07-17T13:21:05;4.85;;;1.40;;
41709;SDS011;59402;48.396;-4.472;2022-07-17T13:28:22;2.57;;;1.27;;
41709;SDS011;59402;48.396;-4.472;2022-07-17T13:30:47;4.70;;;1.20;;
41709;SDS011;59402;48.396;-4.472;2022-07-17T13:33:13;3.10;;;1.60;;
41709;SDS011;59402;48.396;-4.472;2022-07-17T13:35:38;3.33;;;1.30;;
41709;SDS011;59402;48.396;-4.472;2022-07-17T13:38:04;3.67;;;1.30;;
41709;SDS011;59402;48.396;-4.472;2022-07-17T13:40:32;4.00;;;1.20;;
41709;SDS011;59402;48.396;-4.472;2022-07-17T13:42:58;3.13;;;1.10;;
41709;SDS011;59402;48.396;-4.472;2022-07-17T13:45:25;5.97;;;1.27;;
41709;SDS011;59402;48.396;-4.472;2022-07-17T13:47:50;6.05;;;1.25;;
41709;SDS011;59402;48.396;-4.472;2022-07-17T13:50:16;2.67;;;1.20;;
41709;SDS011;59402;48.396;-4.472;2022-07-17T13:52:42;5.13;;;1.40;;
41709;SDS011;59402;48.396;-4.472;2022-07-17T13:55:08;5.35;;;1.52;;
41709;SDS011;59402;48.396;-4.472;2022-07-17T13:57:33;3.25;;;1.13;;
41709;SDS011;59402;48.396;-4.472;2022-07-17T13:59:59;3.47;;;1.40;;
41709;SDS011;59402;48.396;-4.472;2022-07-17T14:02:26;5.32;;;1.42;;
41709;SDS011;59402;48.396;-4.472;2022-07-17T14:04:51;4.13;;;1.40;;
41709;SDS011;59402;48.396;-4.472;2022-07-17T14:07:17;3.90;;;1.48;;
41709;SDS011;59402;48.396;-4.472;2022-07-17T14:09:42;5.23;;;1.60;;
41709;SDS011;59402;48.396;-4.472;2022-07-17T14:12:08;2.92;;;1.25;;
41709;SDS011;59402;48.396;-4.472;2022-07-17T14:14:34;3.72;;;1.20;;
41709;SDS011;59402;48.396;-4.472;2022-07-17T14:19:25;5.57;;;1.50;;
41709;SDS011;59402;48.396;-4.472;2022-07-17T14:21:51;10.75;;;1.38;;
41709;SDS011;59402;48.396;-4.472;2022-07-17T14:24:16;3.95;;;1.30;;
41709;SDS011;59402;48.396;-4.472;2022-07-17T14:26:42;4.00;;;1.45;;
41709;SDS011;59402;48.396;-4.472;2022-07-17T14:29:09;5.47;;;1.45;;
41709;SDS011;59402;48.396;-4.472;2022-07-17T14:31:35;5.88;;;1.50;;
41709;SDS011;59402;48.396;-4.472;2022-07-17T14:36:27;4.83;;;1.50;;
41709;SDS011;59402;48.396;-4.472;2022-07-17T14:38:53;4.00;;;1.30;;
41709;SDS011;59402;48.396;-4.472;2022-07-17T14:46:10;5.53;;;1.42;;
41709;SDS011;59402;48.396;-4.472;2022-07-17T14:51:01;4.07;;;1.50;;
41709;SDS011;59402;48.396;-4.472;2022-07-17T14:58:17;6.03;;;1.20;;
41709;SDS011;59402;48.396;-4.472;2022-07-17T15:03:09;3.88;;;1.67;;
41709;SDS011;59402;48.396;-4.472;2022-07-17T15:05:34;3.63;;;1.30;;
41709;SDS011;59402;48.396;-4.472;2022-07-17T15:22:32;8.85;;;1.70;;
41709;SDS011;59402;48.396;-4.472;2022-07-17T15:24:58;2.97;;;1.30;;
41709;SDS011;59402;48.396;-4.472;2022-07-17T15:29:49;5.43;;;1.35;;
41709;SDS011;59402;48.396;-4.472;2022-07-17T15:37:06;3.42;;;1.08;;
41709;SDS011;59402;48.396;-4.472;2022-07-17T15:41:57;6.35;;;1.40;;